sensor_id;sensor_type;location;lat;lon;timestamp;temperature;humidity
7360;DHT22;3720;48.274;7.796;2023-02-03T00:02:15;6.90;99.90
7360;DHT22;3720;48.274;7.796;2023-02-03T00:04:47;6.80;99.90
7360;DHT22;3720;48.274;7.796;2023-02-03T00:07:19;6.80;99.90
7360;DHT22;3720;48.274;7.796;2023-02-03T00:09:51;6.90;99.90
7360;DHT22;3720;48.274;7.796;2023-02-03T00:12:24;6.90;99.90
7360;DHT22;3720;48.274;7.796;2023-02-03T00:14:56;6.90;99.90
7360;DHT22;3720;48.274;7.796;2023-02-03T00:17:28;6.80;99.90
7360;DHT22;3720;48.274;7.796;2023-02-03T00:19:59;6.80;99.90
7360;DHT22;3720;48.274;7.796;2023-02-03T00:22:31;6.80;99.90
7360;DHT22;3720;48.274;7.796;2023-02-03T00:25:04;6.80;99.90
7360;DHT22;3720;48.274;7.796;2023-02-03T00:27:38;6.80;99.90
7360;DHT22;3720;48.274;7.796;2023-02-03T00:30:11;6.90;99.90
7360;DHT22;3720;48.274;7.796;2023-02-03T00:32:43;6.90;99.90
7360;DHT22;3720;48.274;7.796;2023-02-03T00:35:15;6.90;99.90
7360;DHT22;3720;48.274;7.796;2023-02-03T00:37:50;6.90;99.90
7360;DHT22;3720;48.274;7.796;2023-02-03T00:40:25;6.90;99.90
7360;DHT22;3720;48.274;7.796;2023-02-03T00:43:00;6.80;99.90
7360;DHT22;3720;48.274;7.796;2023-02-03T00:45:42;6.90;99.90
7360;DHT22;3720;48.274;7.796;2023-02-03T00:48:14;6.80;99.90
7360;DHT22;3720;48.274;7.796;2023-02-03T00:50:46;6.80;99.90
7360;DHT22;3720;48.274;7.796;2023-02-03T00:53:19;6.90;99.90
7360;DHT22;3720;48.274;7.796;2023-02-03T00:55:51;6.90;99.90
7360;DHT22;3720;48.274;7.796;2023-02-03T00:58:24;6.90;99.90
7360;DHT22;3720;48.274;7.796;2023-02-03T01:00:56;6.90;99.90
7360;DHT22;3720;48.274;7.796;2023-02-03T01:03:28;6.90;99.90
7360;DHT22;3720;48.274;7.796;2023-02-03T01:06:08;6.90;99.90
7360;DHT22;3720;48.274;7.796;2023-02-03T01:08:41;6.90;99.90
7360;DHT22;3720;48.274;7.796;2023-02-03T01:11:18;6.90;99.90
7360;DHT22;3720;48.274;7.796;2023-02-03T01:13:53;6.80;99.90
7360;DHT22;3720;48.274;7.796;2023-02-03T01:16:25;6.80;99.90
7360;DHT22;3720;48.274;7.796;2023-02-03T01:18:57;6.70;99.90
7360;DHT22;3720;48.274;7.796;2023-02-03T01:21:29;6.70;99.90
7360;DHT22;3720;48.274;7.796;2023-02-03T01:24:02;6.70;99.90
7360;DHT22;3720;48.274;7.796;2023-02-03T01:26:34;6.70;99.90
7360;DHT22;3720;48.274;7.796;2023-02-03T01:29:08;6.70;99.90
7360;DHT22;3720;48.274;7.796;2023-02-03T01:31:41;6.60;99.90
7360;DHT22;3720;48.274;7.796;2023-02-03T01:34:15;6.50;99.90
7360;DHT22;3720;48.274;7.796;2023-02-03T01:36:48;6.40;99.90
7360;DHT22;3720;48.274;7.796;2023-02-03T01:39:19;6.40;99.90
7360;DHT22;3720;48.274;7.796;2023-02-03T01:41:53;6.30;99.90
7360;DHT22;3720;48.274;7.796;2023-02-03T01:44:43;6.30;99.90
7360;DHT22;3720;48.274;7.796;2023-02-03T01:47:21;6.30;99.90
7360;DHT22;3720;48.274;7.796;2023-02-03T01:50:05;6.30;99.90
7360;DHT22;3720;48.274;7.796;2023-02-03T01:52:40;6.20;99.90
7360;DHT22;3720;48.274;7.796;2023-02-03T01:55:16;6.20;99.90
7360;DHT22;3720;48.274;7.796;2023-02-03T01:57:53;6.40;99.90
7360;DHT22;3720;48.274;7.796;2023-02-03T02:00:28;6.50;99.90
7360;DHT22;3720;48.274;7.796;2023-02-03T02:03:01;6.60;99.90
7360;DHT22;3720;48.274;7.796;2023-02-03T02:05:38;6.60;99.90
7360;DHT22;3720;48.274;7.796;2023-02-03T02:08:13;6.50;99.90
7360;DHT22;3720;48.274;7.796;2023-02-03T02:10:47;6.50;99.90
7360;DHT22;3720;48.274;7.796;2023-02-03T02:13:20;6.50;99.90
7360;DHT22;3720;48.274;7.796;2023-02-03T02:16:04;6.50;99.90
7360;DHT22;3720;48.274;7.796;2023-02-03T02:18:48;6.50;99.90
7360;DHT22;3720;48.274;7.796;2023-02-03T02:21:41;6.50;99.90
7360;DHT22;3720;48.274;7.796;2023-02-03T02:30:42;6.60;99.90
7360;DHT22;3720;48.274;7.796;2023-02-03T02:33:29;6.50;99.90
7360;DHT22;3720;48.274;7.796;2023-02-03T02:36:09;6.60;99.90
7360;DHT22;3720;48.274;7.796;2023-02-03T02:38:53;6.60;99.90
7360;DHT22;3720;48.274;7.796;2023-02-03T02:41:36;6.60;99.90
7360;DHT22;3720;48.274;7.796;2023-02-03T02:44:14;6.50;99.90
7360;DHT22;3720;48.274;7.796;2023-02-03T02:46:49;6.50;99.90
7360;DHT22;3720;48.274;7.796;2023-02-03T02:49:27;6.50;99.90
7360;DHT22;3720;48.274;7.796;2023-02-03T02:52:03;6.50;99.90
7360;DHT22;3720;48.274;7.796;2023-02-03T02:54:38;6.40;99.90
7360;DHT22;3720;48.274;7.796;2023-02-03T02:57:12;6.30;99.90
7360;DHT22;3720;48.274;7.796;2023-02-03T02:59:47;6.30;99.90
7360;DHT22;3720;48.274;7.796;2023-02-03T03:02:19;6.30;99.90
7360;DHT22;3720;48.274;7.796;2023-02-03T03:04:53;6.30;99.90
7360;DHT22;3720;48.274;7.796;2023-02-03T03:07:26;6.30;99.90
7360;DHT22;3720;48.274;7.796;2023-02-03T03:10:02;6.20;99.90
7360;DHT22;3720;48.274;7.796;2023-02-03T03:12:38;6.20;99.90
7360;DHT22;3720;48.274;7.796;2023-02-03T03:15:16;6.20;99.90
7360;DHT22;3720;48.274;7.796;2023-02-03T03:17:53;6.20;99.90
7360;DHT22;3720;48.274;7.796;2023-02-03T03:20:29;6.20;99.90
7360;DHT22;3720;48.274;7.796;2023-02-03T03:23:05;6.10;99.90
7360;DHT22;3720;48.274;7.796;2023-02-03T03:25:40;6.20;99.90
7360;DHT22;3720;48.274;7.796;2023-02-03T03:28:15;6.20;99.90
7360;DHT22;3720;48.274;7.796;2023-02-03T03:30:50;6.20;99.90
7360;DHT22;3720;48.274;7.796;2023-02-03T03:33:22;6.20;99.90
7360;DHT22;3720;48.274;7.796;2023-02-03T03:36:00;6.20;99.90
7360;DHT22;3720;48.274;7.796;2023-02-03T03:38:39;6.20;99.90
7360;DHT22;3720;48.274;7.796;2023-02-03T03:41:18;6.20;99.90
7360;DHT22;3720;48.274;7.796;2023-02-03T03:43:52;6.20;99.90
7360;DHT22;3720;48.274;7.796;2023-02-03T03:46:29;6.20;99.90
7360;DHT22;3720;48.274;7.796;2023-02-03T03:49:04;6.20;99.90
7360;DHT22;3720;48.274;7.796;2023-02-03T03:51:41;6.20;99.90
7360;DHT22;3720;48.274;7.796;2023-02-03T03:54:18;6.20;99.90
7360;DHT22;3720;48.274;7.796;2023-02-03T03:56:57;6.20;99.90
7360;DHT22;3720;48.274;7.796;2023-02-03T03:59:33;6.20;99.90
7360;DHT22;3720;48.274;7.796;2023-02-03T04:02:06;6.20;99.90
7360;DHT22;3720;48.274;7.796;2023-02-03T04:04:39;6.20;99.90
7360;DHT22;3720;48.274;7.796;2023-02-03T04:07:14;6.20;99.90
7360;DHT22;3720;48.274;7.796;2023-02-03T04:09:46;6.20;99.90
7360;DHT22;3720;48.274;7.796;2023-02-03T04:12:22;6.20;99.90
7360;DHT22;3720;48.274;7.796;2023-02-03T04:14:54;6.20;99.90
7360;DHT22;3720;48.274;7.796;2023-02-03T04:17:26;6.20;99.90
7360;DHT22;3720;48.274;7.796;2023-02-03T04:19:58;6.20;99.90
7360;DHT22;3720;48.274;7.796;2023-02-03T04:22:31;6.20;99.90
7360;DHT22;3720;48.274;7.796;2023-02-03T04:25:04;6.20;99.90
7360;DHT22;3720;48.274;7.796;2023-02-03T04:27:36;6.20;99.90
7360;DHT22;3720;48.274;7.796;2023-02-03T04:30:10;6.10;99.90
7360;DHT22;3720;48.274;7.796;2023-02-03T04:32:42;6.10;99.90
7360;DHT22;3720;48.274;7.796;2023-02-03T04:35:14;6.20;99.90
7360;DHT22;3720;48.274;7.796;2023-02-03T04:37:48;6.10;99.90
7360;DHT22;3720;48.274;7.796;2023-02-03T04:40:20;6.20;99.90
7360;DHT22;3720;48.274;7.796;2023-02-03T04:42:52;6.20;99.90
7360;DHT22;3720;48.274;7.796;2023-02-03T04:45:24;6.10;99.90
7360;DHT22;3720;48.274;7.796;2023-02-03T04:47:55;6.10;99.90
7360;DHT22;3720;48.274;7.796;2023-02-03T04:50:27;6.10;99.90
7360;DHT22;3720;48.274;7.796;2023-02-03T04:53:01;6.10;99.90
7360;DHT22;3720;48.274;7.796;2023-02-03T04:55:33;6.10;99.90
7360;DHT22;3720;48.274;7.796;2023-02-03T04:58:05;6.10;99.90
7360;DHT22;3720;48.274;7.796;2023-02-03T05:00:36;6.10;99.90
7360;DHT22;3720;48.274;7.796;2023-02-03T05:03:08;6.00;99.90
7360;DHT22;3720;48.274;7.796;2023-02-03T05:05:40;6.00;99.90
7360;DHT22;3720;48.274;7.796;2023-02-03T05:08:13;6.10;99.90
7360;DHT22;3720;48.274;7.796;2023-02-03T05:10:45;6.10;99.90
7360;DHT22;3720;48.274;7.796;2023-02-03T05:13:17;6.10;99.90
7360;DHT22;3720;48.274;7.796;2023-02-03T05:15:49;6.10;99.90
7360;DHT22;3720;48.274;7.796;2023-02-03T05:18:21;6.10;99.90
7360;DHT22;3720;48.274;7.796;2023-02-03T05:20:53;6.10;99.90
7360;DHT22;3720;48.274;7.796;2023-02-03T05:23:26;6.00;99.90
7360;DHT22;3720;48.274;7.796;2023-02-03T05:25:58;6.00;99.90
7360;DHT22;3720;48.274;7.796;2023-02-03T05:28:30;6.00;99.90
7360;DHT22;3720;48.274;7.796;2023-02-03T05:31:03;6.00;99.90
7360;DHT22;3720;48.274;7.796;2023-02-03T05:33:35;6.00;99.90
7360;DHT22;3720;48.274;7.796;2023-02-03T05:36:08;6.00;99.90
7360;DHT22;3720;48.274;7.796;2023-02-03T05:38:41;6.00;99.90
7360;DHT22;3720;48.274;7.796;2023-02-03T05:41:13;6.10;99.90
7360;DHT22;3720;48.274;7.796;2023-02-03T05:44:03;6.10;99.90
7360;DHT22;3720;48.274;7.796;2023-02-03T05:46:35;6.10;99.90
7360;DHT22;3720;48.274;7.796;2023-02-03T05:49:07;6.10;99.90
7360;DHT22;3720;48.274;7.796;2023-02-03T05:51:39;6.10;99.90
7360;DHT22;3720;48.274;7.796;2023-02-03T05:54:13;6.10;99.90
7360;DHT22;3720;48.274;7.796;2023-02-03T05:56:46;6.10;99.90
7360;DHT22;3720;48.274;7.796;2023-02-03T05:59:18;6.10;99.90
7360;DHT22;3720;48.274;7.796;2023-02-03T06:01:50;6.10;99.90
7360;DHT22;3720;48.274;7.796;2023-02-03T06:04:21;6.10;99.90
7360;DHT22;3720;48.274;7.796;2023-02-03T06:06:54;6.10;99.90
7360;DHT22;3720;48.274;7.796;2023-02-03T06:09:27;6.10;99.90
7360;DHT22;3720;48.274;7.796;2023-02-03T06:11:59;6.00;99.90
7360;DHT22;3720;48.274;7.796;2023-02-03T06:14:31;6.00;99.90
7360;DHT22;3720;48.274;7.796;2023-02-03T06:17:02;6.00;99.90
7360;DHT22;3720;48.274;7.796;2023-02-03T06:19:35;5.90;99.90
7360;DHT22;3720;48.274;7.796;2023-02-03T06:22:06;5.90;99.90
7360;DHT22;3720;48.274;7.796;2023-02-03T06:24:40;5.90;99.90
7360;DHT22;3720;48.274;7.796;2023-02-03T06:27:14;5.90;99.90
7360;DHT22;3720;48.274;7.796;2023-02-03T06:29:46;5.90;99.90
7360;DHT22;3720;48.274;7.796;2023-02-03T06:32:19;6.10;99.90
7360;DHT22;3720;48.274;7.796;2023-02-03T06:34:50;6.20;99.90
7360;DHT22;3720;48.274;7.796;2023-02-03T06:37:22;6.10;99.90
7360;DHT22;3720;48.274;7.796;2023-02-03T06:39:56;6.20;99.90
7360;DHT22;3720;48.274;7.796;2023-02-03T06:42:28;6.10;99.90
7360;DHT22;3720;48.274;7.796;2023-02-03T06:44:59;6.10;99.90
7360;DHT22;3720;48.274;7.796;2023-02-03T06:47:31;6.00;99.90
7360;DHT22;3720;48.274;7.796;2023-02-03T06:50:03;6.10;99.90
7360;DHT22;3720;48.274;7.796;2023-02-03T06:52:36;6.10;99.90
7360;DHT22;3720;48.274;7.796;2023-02-03T06:55:10;6.10;99.90
7360;DHT22;3720;48.274;7.796;2023-02-03T06:57:43;6.10;99.90
7360;DHT22;3720;48.274;7.796;2023-02-03T07:00:17;6.10;99.90
7360;DHT22;3720;48.274;7.796;2023-02-03T07:02:52;6.10;99.90
7360;DHT22;3720;48.274;7.796;2023-02-03T07:05:25;6.10;99.90
7360;DHT22;3720;48.274;7.796;2023-02-03T07:07:57;6.10;99.90
7360;DHT22;3720;48.274;7.796;2023-02-03T07:10:31;6.10;99.90
7360;DHT22;3720;48.274;7.796;2023-02-03T07:13:03;6.10;99.90
7360;DHT22;3720;48.274;7.796;2023-02-03T07:15:35;6.10;99.90
7360;DHT22;3720;48.274;7.796;2023-02-03T07:18:07;6.10;99.90
7360;DHT22;3720;48.274;7.796;2023-02-03T07:20:39;6.10;99.90
7360;DHT22;3720;48.274;7.796;2023-02-03T07:23:11;6.10;99.90
7360;DHT22;3720;48.274;7.796;2023-02-03T07:25:44;6.10;99.90
7360;DHT22;3720;48.274;7.796;2023-02-03T07:28:16;6.20;99.90
7360;DHT22;3720;48.274;7.796;2023-02-03T07:30:48;6.20;99.90
7360;DHT22;3720;48.274;7.796;2023-02-03T07:33:20;6.20;99.90
7360;DHT22;3720;48.274;7.796;2023-02-03T07:35:52;6.30;99.90
7360;DHT22;3720;48.274;7.796;2023-02-03T07:38:25;6.30;99.90
7360;DHT22;3720;48.274;7.796;2023-02-03T07:40:59;6.30;99.90
7360;DHT22;3720;48.274;7.796;2023-02-03T07:43:30;6.30;99.90
7360;DHT22;3720;48.274;7.796;2023-02-03T07:46:02;6.40;99.90
7360;DHT22;3720;48.274;7.796;2023-02-03T07:48:34;6.40;99.90
7360;DHT22;3720;48.274;7.796;2023-02-03T07:51:06;6.40;99.90
7360;DHT22;3720;48.274;7.796;2023-02-03T07:53:38;6.40;99.90
7360;DHT22;3720;48.274;7.796;2023-02-03T07:56:11;6.40;99.90
7360;DHT22;3720;48.274;7.796;2023-02-03T07:58:43;6.50;99.90
7360;DHT22;3720;48.274;7.796;2023-02-03T08:01:15;6.50;99.90
7360;DHT22;3720;48.274;7.796;2023-02-03T08:03:47;6.50;99.90
7360;DHT22;3720;48.274;7.796;2023-02-03T08:06:19;6.60;99.90
7360;DHT22;3720;48.274;7.796;2023-02-03T08:08:51;6.60;99.90
7360;DHT22;3720;48.274;7.796;2023-02-03T08:11:24;6.60;99.90
7360;DHT22;3720;48.274;7.796;2023-02-03T08:13:56;6.60;99.90
7360;DHT22;3720;48.274;7.796;2023-02-03T08:16:28;6.60;99.90
7360;DHT22;3720;48.274;7.796;2023-02-03T08:19:00;6.60;99.90
7360;DHT22;3720;48.274;7.796;2023-02-03T08:21:32;6.70;99.90
7360;DHT22;3720;48.274;7.796;2023-02-03T08:24:04;6.70;99.90
7360;DHT22;3720;48.274;7.796;2023-02-03T08:26:37;6.70;99.90
7360;DHT22;3720;48.274;7.796;2023-02-03T08:29:09;6.70;99.90
7360;DHT22;3720;48.274;7.796;2023-02-03T08:31:42;6.80;99.90
7360;DHT22;3720;48.274;7.796;2023-02-03T08:34:13;6.80;99.90
7360;DHT22;3720;48.274;7.796;2023-02-03T08:36:45;6.70;99.90
7360;DHT22;3720;48.274;7.796;2023-02-03T08:39:17;6.80;99.90
7360;DHT22;3720;48.274;7.796;2023-02-03T08:41:50;6.80;99.90
7360;DHT22;3720;48.274;7.796;2023-02-03T08:44:23;6.80;99.90
7360;DHT22;3720;48.274;7.796;2023-02-03T08:46:54;6.90;99.90
7360;DHT22;3720;48.274;7.796;2023-02-03T08:49:27;6.90;99.90
7360;DHT22;3720;48.274;7.796;2023-02-03T08:52:00;6.90;99.90
7360;DHT22;3720;48.274;7.796;2023-02-03T08:54:32;6.90;99.90
7360;DHT22;3720;48.274;7.796;2023-02-03T08:57:06;7.00;99.90
7360;DHT22;3720;48.274;7.796;2023-02-03T08:59:40;7.00;99.90
7360;DHT22;3720;48.274;7.796;2023-02-03T09:02:14;7.10;99.90
7360;DHT22;3720;48.274;7.796;2023-02-03T09:04:47;7.00;99.90
7360;DHT22;3720;48.274;7.796;2023-02-03T09:07:19;7.10;99.90
7360;DHT22;3720;48.274;7.796;2023-02-03T09:09:51;7.10;99.90
7360;DHT22;3720;48.274;7.796;2023-02-03T09:12:25;7.00;99.90
7360;DHT22;3720;48.274;7.796;2023-02-03T09:14:57;7.00;99.90
7360;DHT22;3720;48.274;7.796;2023-02-03T09:17:28;7.10;99.90
7360;DHT22;3720;48.274;7.796;2023-02-03T09:20:00;7.10;99.90
7360;DHT22;3720;48.274;7.796;2023-02-03T09:22:32;7.20;99.90
7360;DHT22;3720;48.274;7.796;2023-02-03T09:25:05;7.10;99.90
7360;DHT22;3720;48.274;7.796;2023-02-03T09:27:39;7.10;99.90
7360;DHT22;3720;48.274;7.796;2023-02-03T09:30:12;7.20;99.90
7360;DHT22;3720;48.274;7.796;2023-02-03T09:32:44;7.10;99.90
7360;DHT22;3720;48.274;7.796;2023-02-03T09:35:23;7.10;99.90
7360;DHT22;3720;48.274;7.796;2023-02-03T09:37:57;7.10;99.90
7360;DHT22;3720;48.274;7.796;2023-02-03T09:40:33;7.20;99.90
7360;DHT22;3720;48.274;7.796;2023-02-03T09:43:21;7.20;99.90
7360;DHT22;3720;48.274;7.796;2023-02-03T09:45:59;7.20;99.90
7360;DHT22;3720;48.274;7.796;2023-02-03T09:48:36;7.30;99.90
7360;DHT22;3720;48.274;7.796;2023-02-03T09:51:17;7.40;99.90
7360;DHT22;3720;48.274;7.796;2023-02-03T09:53:55;7.40;99.90
7360;DHT22;3720;48.274;7.796;2023-02-03T09:56:31;7.50;99.90
7360;DHT22;3720;48.274;7.796;2023-02-03T09:59:07;7.50;99.90
7360;DHT22;3720;48.274;7.796;2023-02-03T10:01:44;7.60;99.90
7360;DHT22;3720;48.274;7.796;2023-02-03T10:04:24;7.60;99.90
7360;DHT22;3720;48.274;7.796;2023-02-03T10:07:06;7.70;99.90
7360;DHT22;3720;48.274;7.796;2023-02-03T10:09:51;7.70;99.90
7360;DHT22;3720;48.274;7.796;2023-02-03T10:12:43;7.80;99.90
7360;DHT22;3720;48.274;7.796;2023-02-03T10:18:26;7.90;99.90
7360;DHT22;3720;48.274;7.796;2023-02-03T10:21:02;7.90;99.90
7360;DHT22;3720;48.274;7.796;2023-02-03T10:23:39;7.90;99.90
7360;DHT22;3720;48.274;7.796;2023-02-03T10:26:15;7.90;99.90
7360;DHT22;3720;48.274;7.796;2023-02-03T10:28:53;7.90;99.90
7360;DHT22;3720;48.274;7.796;2023-02-03T10:31:29;7.90;99.90
7360;DHT22;3720;48.274;7.796;2023-02-03T10:34:09;7.90;99.90
7360;DHT22;3720;48.274;7.796;2023-02-03T10:36:54;7.90;99.90
7360;DHT22;3720;48.274;7.796;2023-02-03T10:39:31;7.90;99.90
7360;DHT22;3720;48.274;7.796;2023-02-03T10:42:04;7.90;99.90
7360;DHT22;3720;48.274;7.796;2023-02-03T10:44:38;8.00;99.90
7360;DHT22;3720;48.274;7.796;2023-02-03T10:47:24;8.00;99.90
7360;DHT22;3720;48.274;7.796;2023-02-03T10:49:57;8.00;99.90
7360;DHT22;3720;48.274;7.796;2023-02-03T10:52:31;8.10;99.90
7360;DHT22;3720;48.274;7.796;2023-02-03T10:55:06;8.10;99.90
7360;DHT22;3720;48.274;7.796;2023-02-03T10:57:38;8.20;99.90
7360;DHT22;3720;48.274;7.796;2023-02-03T11:00:21;8.20;99.90
7360;DHT22;3720;48.274;7.796;2023-02-03T11:02:56;8.30;99.90
7360;DHT22;3720;48.274;7.796;2023-02-03T11:05:29;8.30;99.90
7360;DHT22;3720;48.274;7.796;2023-02-03T11:08:01;8.30;99.90
7360;DHT22;3720;48.274;7.796;2023-02-03T11:10:35;8.30;99.90
7360;DHT22;3720;48.274;7.796;2023-02-03T11:13:15;8.30;99.90
7360;DHT22;3720;48.274;7.796;2023-02-03T11:15:57;8.30;99.90
7360;DHT22;3720;48.274;7.796;2023-02-03T11:18:52;8.30;99.90
7360;DHT22;3720;48.274;7.796;2023-02-03T11:21:26;8.40;99.90
7360;DHT22;3720;48.274;7.796;2023-02-03T11:24:05;8.40;99.90
7360;DHT22;3720;48.274;7.796;2023-02-03T11:26:41;8.50;99.90
7360;DHT22;3720;48.274;7.796;2023-02-03T11:29:16;8.50;99.90
7360;DHT22;3720;48.274;7.796;2023-02-03T11:31:50;8.50;99.90
7360;DHT22;3720;48.274;7.796;2023-02-03T11:34:28;8.50;99.90
7360;DHT22;3720;48.274;7.796;2023-02-03T11:37:22;8.60;99.90
7360;DHT22;3720;48.274;7.796;2023-02-03T11:43:03;8.60;99.90
7360;DHT22;3720;48.274;7.796;2023-02-03T11:45:38;8.60;99.90
7360;DHT22;3720;48.274;7.796;2023-02-03T11:48:19;8.70;99.90
7360;DHT22;3720;48.274;7.796;2023-02-03T11:51:00;8.70;99.90
7360;DHT22;3720;48.274;7.796;2023-02-03T11:53:43;8.80;99.90
7360;DHT22;3720;48.274;7.796;2023-02-03T11:56:29;8.70;99.90
7360;DHT22;3720;48.274;7.796;2023-02-03T11:59:23;8.80;99.90
7360;DHT22;3720;48.274;7.796;2023-02-03T12:05:43;8.80;99.90
7360;DHT22;3720;48.274;7.796;2023-02-03T12:08:30;8.80;99.90
7360;DHT22;3720;48.274;7.796;2023-02-03T12:11:13;8.80;99.90
7360;DHT22;3720;48.274;7.796;2023-02-03T12:13:58;8.90;99.90
7360;DHT22;3720;48.274;7.796;2023-02-03T12:17:14;8.90;99.90
7360;DHT22;3720;48.274;7.796;2023-02-03T12:20:14;8.80;99.90
7360;DHT22;3720;48.274;7.796;2023-02-03T12:22:56;9.00;99.90
7360;DHT22;3720;48.274;7.796;2023-02-03T12:25:38;9.00;99.90
7360;DHT22;3720;48.274;7.796;2023-02-03T12:28:24;9.00;99.90
7360;DHT22;3720;48.274;7.796;2023-02-03T12:31:03;9.00;99.90
7360;DHT22;3720;48.274;7.796;2023-02-03T12:33:42;9.10;99.90
7360;DHT22;3720;48.274;7.796;2023-02-03T12:36:17;9.10;99.90
7360;DHT22;3720;48.274;7.796;2023-02-03T12:38:52;9.20;99.90
7360;DHT22;3720;48.274;7.796;2023-02-03T12:41:30;9.10;99.90
7360;DHT22;3720;48.274;7.796;2023-02-03T12:44:11;9.10;99.90
7360;DHT22;3720;48.274;7.796;2023-02-03T12:46:49;9.00;99.90
7360;DHT22;3720;48.274;7.796;2023-02-03T12:49:32;9.10;99.90
7360;DHT22;3720;48.274;7.796;2023-02-03T12:52:10;9.10;99.90
7360;DHT22;3720;48.274;7.796;2023-02-03T12:54:48;9.10;99.90
7360;DHT22;3720;48.274;7.796;2023-02-03T12:57:31;9.10;99.90
7360;DHT22;3720;48.274;7.796;2023-02-03T13:00:23;9.10;99.90
7360;DHT22;3720;48.274;7.796;2023-02-03T13:03:05;9.20;99.90
7360;DHT22;3720;48.274;7.796;2023-02-03T13:05:48;9.10;99.90
7360;DHT22;3720;48.274;7.796;2023-02-03T13:08:25;9.10;99.90
7360;DHT22;3720;48.274;7.796;2023-02-03T13:11:08;9.10;99.90
7360;DHT22;3720;48.274;7.796;2023-02-03T13:13:55;9.10;99.90
7360;DHT22;3720;48.274;7.796;2023-02-03T13:16:31;9.10;99.90
7360;DHT22;3720;48.274;7.796;2023-02-03T13:19:11;9.10;99.90
7360;DHT22;3720;48.274;7.796;2023-02-03T13:21:46;9.10;99.90
7360;DHT22;3720;48.274;7.796;2023-02-03T13:24:21;9.10;99.90
7360;DHT22;3720;48.274;7.796;2023-02-03T13:27:10;9.10;99.90
7360;DHT22;3720;48.274;7.796;2023-02-03T13:30:02;9.10;99.90
7360;DHT22;3720;48.274;7.796;2023-02-03T13:32:54;9.20;99.90
7360;DHT22;3720;48.274;7.796;2023-02-03T13:35:43;9.20;99.90
7360;DHT22;3720;48.274;7.796;2023-02-03T13:38:33;9.20;99.90
7360;DHT22;3720;48.274;7.796;2023-02-03T13:41:14;9.20;99.90
7360;DHT22;3720;48.274;7.796;2023-02-03T13:43:49;9.20;99.90
7360;DHT22;3720;48.274;7.796;2023-02-03T13:46:25;9.20;99.90
7360;DHT22;3720;48.274;7.796;2023-02-03T13:49:00;9.20;99.90
7360;DHT22;3720;48.274;7.796;2023-02-03T13:51:36;9.20;99.90
7360;DHT22;3720;48.274;7.796;2023-02-03T13:54:14;9.20;99.90
7360;DHT22;3720;48.274;7.796;2023-02-03T13:56:53;9.20;99.90
7360;DHT22;3720;48.274;7.796;2023-02-03T13:59:28;9.20;99.90
7360;DHT22;3720;48.274;7.796;2023-02-03T14:11:44;9.10;99.90
7360;DHT22;3720;48.274;7.796;2023-02-03T14:14:44;9.10;99.90
7360;DHT22;3720;48.274;7.796;2023-02-03T14:17:55;9.00;99.90
7360;DHT22;3720;48.274;7.796;2023-02-03T14:20:41;9.00;99.90
7360;DHT22;3720;48.274;7.796;2023-02-03T14:23:18;9.00;99.90
7360;DHT22;3720;48.274;7.796;2023-02-03T14:25:53;9.00;99.90
7360;DHT22;3720;48.274;7.796;2023-02-03T14:28:36;9.00;99.90
7360;DHT22;3720;48.274;7.796;2023-02-03T14:31:11;9.00;99.90
7360;DHT22;3720;48.274;7.796;2023-02-03T14:34:07;8.90;99.90
7360;DHT22;3720;48.274;7.796;2023-02-03T14:36:45;8.90;99.90
7360;DHT22;3720;48.274;7.796;2023-02-03T14:43:07;8.90;99.90
7360;DHT22;3720;48.274;7.796;2023-02-03T14:49:17;8.90;99.90
7360;DHT22;3720;48.274;7.796;2023-02-03T14:52:06;8.80;99.90
7360;DHT22;3720;48.274;7.796;2023-02-03T14:54:52;8.80;99.90
7360;DHT22;3720;48.274;7.796;2023-02-03T14:57:35;8.80;99.90
7360;DHT22;3720;48.274;7.796;2023-02-03T15:00:26;8.80;99.90
7360;DHT22;3720;48.274;7.796;2023-02-03T15:03:18;8.80;99.90
7360;DHT22;3720;48.274;7.796;2023-02-03T15:05:54;8.80;99.90
7360;DHT22;3720;48.274;7.796;2023-02-03T15:08:43;8.80;99.90
7360;DHT22;3720;48.274;7.796;2023-02-03T15:11:27;8.80;99.90
7360;DHT22;3720;48.274;7.796;2023-02-03T15:14:24;8.80;99.90
7360;DHT22;3720;48.274;7.796;2023-02-03T15:16:58;8.80;99.90
7360;DHT22;3720;48.274;7.796;2023-02-03T15:19:34;8.80;99.90
7360;DHT22;3720;48.274;7.796;2023-02-03T15:22:19;8.80;99.90
7360;DHT22;3720;48.274;7.796;2023-02-03T15:24:54;8.90;99.90
7360;DHT22;3720;48.274;7.796;2023-02-03T15:27:28;8.90;99.90
7360;DHT22;3720;48.274;7.796;2023-02-03T15:30:13;8.90;99.90
7360;DHT22;3720;48.274;7.796;2023-02-03T15:32:51;8.90;99.90
7360;DHT22;3720;48.274;7.796;2023-02-03T15:35:29;8.90;99.90
7360;DHT22;3720;48.274;7.796;2023-02-03T15:38:05;8.90;99.90
7360;DHT22;3720;48.274;7.796;2023-02-03T15:40:43;8.90;99.90
7360;DHT22;3720;48.274;7.796;2023-02-03T15:43:16;8.90;99.90
7360;DHT22;3720;48.274;7.796;2023-02-03T15:45:56;8.80;99.90
7360;DHT22;3720;48.274;7.796;2023-02-03T15:48:32;8.80;99.90
7360;DHT22;3720;48.274;7.796;2023-02-03T15:51:10;8.80;99.90
7360;DHT22;3720;48.274;7.796;2023-02-03T15:53:48;8.80;99.90
7360;DHT22;3720;48.274;7.796;2023-02-03T15:56:29;8.80;99.90
7360;DHT22;3720;48.274;7.796;2023-02-03T15:59:18;8.90;99.90
7360;DHT22;3720;48.274;7.796;2023-02-03T16:01:52;8.90;99.90
7360;DHT22;3720;48.274;7.796;2023-02-03T16:04:24;8.80;99.90
7360;DHT22;3720;48.274;7.796;2023-02-03T16:06:58;8.80;99.90
7360;DHT22;3720;48.274;7.796;2023-02-03T16:09:32;8.80;99.90
7360;DHT22;3720;48.274;7.796;2023-02-03T16:12:15;8.80;99.90
7360;DHT22;3720;48.274;7.796;2023-02-03T16:14:48;8.80;99.90
7360;DHT22;3720;48.274;7.796;2023-02-03T16:17:27;8.80;99.90
7360;DHT22;3720;48.274;7.796;2023-02-03T16:20:33;8.80;99.90
7360;DHT22;3720;48.274;7.796;2023-02-03T16:23:17;8.70;99.90
7360;DHT22;3720;48.274;7.796;2023-02-03T16:26:03;8.70;99.90
7360;DHT22;3720;48.274;7.796;2023-02-03T16:28:36;8.70;99.90
7360;DHT22;3720;48.274;7.796;2023-02-03T16:31:25;8.70;99.90
7360;DHT22;3720;48.274;7.796;2023-02-03T16:34:16;8.70;99.90
7360;DHT22;3720;48.274;7.796;2023-02-03T16:37:11;8.70;99.90
7360;DHT22;3720;48.274;7.796;2023-02-03T16:40:02;8.60;99.90
7360;DHT22;3720;48.274;7.796;2023-02-03T16:42:52;8.60;99.90
7360;DHT22;3720;48.274;7.796;2023-02-03T16:45:41;8.70;99.90
7360;DHT22;3720;48.274;7.796;2023-02-03T16:48:30;8.70;99.90
7360;DHT22;3720;48.274;7.796;2023-02-03T16:51:19;8.60;99.90
7360;DHT22;3720;48.274;7.796;2023-02-03T16:53:51;8.60;99.90
7360;DHT22;3720;48.274;7.796;2023-02-03T16:56:25;8.60;99.90
7360;DHT22;3720;48.274;7.796;2023-02-03T16:58:57;8.60;99.90
7360;DHT22;3720;48.274;7.796;2023-02-03T17:01:29;8.60;99.90
7360;DHT22;3720;48.274;7.796;2023-02-03T17:04:01;8.60;99.90
7360;DHT22;3720;48.274;7.796;2023-02-03T17:06:36;8.60;99.90
7360;DHT22;3720;48.274;7.796;2023-02-03T17:09:08;8.50;99.90
7360;DHT22;3720;48.274;7.796;2023-02-03T17:11:41;8.60;99.90
7360;DHT22;3720;48.274;7.796;2023-02-03T17:14:13;8.50;99.90
7360;DHT22;3720;48.274;7.796;2023-02-03T17:16:45;8.50;99.90
7360;DHT22;3720;48.274;7.796;2023-02-03T17:19:17;8.50;99.90
7360;DHT22;3720;48.274;7.796;2023-02-03T17:21:49;8.40;99.90
7360;DHT22;3720;48.274;7.796;2023-02-03T17:24:22;8.40;99.90
7360;DHT22;3720;48.274;7.796;2023-02-03T17:26:55;8.40;99.90
7360;DHT22;3720;48.274;7.796;2023-02-03T17:29:27;8.40;99.90
7360;DHT22;3720;48.274;7.796;2023-02-03T17:31:59;8.50;99.90
7360;DHT22;3720;48.274;7.796;2023-02-03T17:34:31;8.50;99.90
7360;DHT22;3720;48.274;7.796;2023-02-03T17:37:03;8.40;99.90
7360;DHT22;3720;48.274;7.796;2023-02-03T17:39:34;8.50;99.90
7360;DHT22;3720;48.274;7.796;2023-02-03T17:42:08;8.50;99.90
7360;DHT22;3720;48.274;7.796;2023-02-03T17:44:40;8.60;99.90
7360;DHT22;3720;48.274;7.796;2023-02-03T17:47:12;8.60;99.90
7360;DHT22;3720;48.274;7.796;2023-02-03T17:49:44;8.50;99.90
7360;DHT22;3720;48.274;7.796;2023-02-03T17:52:16;8.50;99.90